sensor_id;sensor_type;location;lat;lon;timestamp;pressure;altitude;pressure_sealevel;temperature;humidity
56198;BME280;42700;42.524;12.052;2023-05-02T00:01:36;103086.69;;;16.46;100.00
56198;BME280;42700;42.524;12.052;2023-05-02T00:04:02;103077.78;;;16.45;100.00
56198;BME280;42700;42.524;12.052;2023-05-02T00:06:28;102834.97;;;16.36;100.00
56198;BME280;42700;42.524;12.052;2023-05-02T00:08:55;103095.69;;;16.45;100.00
56198;BME280;42700;42.524;12.052;2023-05-02T00:11:20;103174.28;;;16.47;100.00
56198;BME280;42700;42.524;12.052;2023-05-02T00:13:47;103202.88;;;16.48;100.00
56198;BME280;42700;42.524;12.052;2023-05-02T00:16:12;103209.19;;;16.47;100.00
56198;BME280;42700;42.524;12.052;2023-05-02T00:18:38;102981.44;;;16.40;100.00
56198;BME280;42700;42.524;12.052;2023-05-02T00:21:03;103136.91;;;16.44;100.00
56198;BME280;42700;42.524;12.052;2023-05-02T00:23:30;103023.47;;;16.40;100.00
56198;BME280;42700;42.524;12.052;2023-05-02T00:25:55;102820.03;;;16.32;100.00
56198;BME280;42700;42.524;12.052;2023-05-02T00:28:21;102988.72;;;16.38;100.00
56198;BME280;42700;42.524;12.052;2023-05-02T00:30:46;103070.06;;;16.39;100.00
56198;BME280;42700;42.524;12.052;2023-05-02T00:33:12;103323.66;;;16.48;100.00
56198;BME280;42700;42.524;12.052;2023-05-02T00:35:38;103418.38;;;16.50;100.00
56198;BME280;42700;42.524;12.052;2023-05-02T00:38:04;103356.72;;;16.48;100.00
56198;BME280;42700;42.524;12.052;2023-05-02T00:40:30;103430.06;;;16.49;100.00
56198;BME280;42700;42.524;12.052;2023-05-02T00:42:56;103519.44;;;16.51;100.00
56198;BME280;42700;42.524;12.052;2023-05-02T00:45:21;103410.47;;;16.47;100.00
56198;BME280;42700;42.524;12.052;2023-05-02T00:47:48;103565.00;;;16.52;100.00
56198;BME280;42700;42.524;12.052;2023-05-02T00:50:14;103544.44;;;16.51;100.00
56198;BME280;42700;42.524;12.052;2023-05-02T00:52:40;103479.25;;;16.49;100.00
56198;BME280;42700;42.524;12.052;2023-05-02T00:55:06;103615.91;;;16.54;100.00
56198;BME280;42700;42.524;12.052;2023-05-02T00:57:32;103201.47;;;16.40;100.00
56198;BME280;42700;42.524;12.052;2023-05-02T00:59:57;103416.72;;;16.47;100.00
56198;BME280;42700;42.524;12.052;2023-05-02T01:02:37;103501.50;;;16.51;100.00
56198;BME280;42700;42.524;12.052;2023-05-02T01:05:14;103517.59;;;16.51;100.00
56198;BME280;42700;42.524;12.052;2023-05-02T01:07:53;103435.44;;;16.49;100.00
56198;BME280;42700;42.524;12.052;2023-05-02T01:10:28;103581.97;;;16.53;100.00
56198;BME280;42700;42.524;12.052;2023-05-02T01:15:29;103491.72;;;16.50;100.00
56198;BME280;42700;42.524;12.052;2023-05-02T01:17:56;103532.78;;;16.52;100.00
56198;BME280;42700;42.524;12.052;2023-05-02T01:20:25;103542.66;;;16.52;100.00
56198;BME280;42700;42.524;12.052;2023-05-02T01:22:52;103740.06;;;16.59;100.00
56198;BME280;42700;42.524;12.052;2023-05-02T01:30:12;103877.72;;;16.63;100.00
56198;BME280;42700;42.524;12.052;2023-05-02T01:32:39;103791.00;;;16.60;100.00
56198;BME280;42700;42.524;12.052;2023-05-02T01:35:06;103498.81;;;16.51;100.00
56198;BME280;42700;42.524;12.052;2023-05-02T01:37:32;103635.56;;;16.54;100.00
56198;BME280;42700;42.524;12.052;2023-05-02T01:39:58;103846.34;;;16.63;100.00
56198;BME280;42700;42.524;12.052;2023-05-02T01:42:25;103671.19;;;16.58;100.00
56198;BME280;42700;42.524;12.052;2023-05-02T01:44:51;103695.28;;;16.59;100.00
56198;BME280;42700;42.524;12.052;2023-05-02T01:47:18;103862.34;;;16.66;100.00
56198;BME280;42700;42.524;12.052;2023-05-02T01:49:44;103297.66;;;16.48;100.00
56198;BME280;42700;42.524;12.052;2023-05-02T01:52:10;103480.75;;;16.55;100.00
56198;BME280;42700;42.524;12.052;2023-05-02T01:54:37;103437.00;;;16.53;100.00
56198;BME280;42700;42.524;12.052;2023-05-02T01:57:05;103553.06;;;16.58;100.00
56198;BME280;42700;42.524;12.052;2023-05-02T01:59:31;103618.31;;;16.60;100.00
56198;BME280;42700;42.524;12.052;2023-05-02T02:01:58;103621.00;;;16.60;100.00
56198;BME280;42700;42.524;12.052;2023-05-02T02:04:24;103466.38;;;16.56;100.00
56198;BME280;42700;42.524;12.052;2023-05-02T02:06:57;103519.13;;;16.57;100.00
56198;BME280;42700;42.524;12.052;2023-05-02T02:09:25;103436.84;;;16.56;100.00
56198;BME280;42700;42.524;12.052;2023-05-02T02:11:51;103520.88;;;16.58;100.00
56198;BME280;42700;42.524;12.052;2023-05-02T02:14:19;103590.53;;;16.61;100.00
56198;BME280;42700;42.524;12.052;2023-05-02T02:16:45;103503.91;;;16.57;100.00
56198;BME280;42700;42.524;12.052;2023-05-02T02:19:12;103413.63;;;16.55;100.00
56198;BME280;42700;42.524;12.052;2023-05-02T02:21:41;103227.81;;;16.50;100.00
56198;BME280;42700;42.524;12.052;2023-05-02T02:24:07;103188.53;;;16.49;100.00
56198;BME280;42700;42.524;12.052;2023-05-02T02:26:33;103381.53;;;16.53;100.00
56198;BME280;42700;42.524;12.052;2023-05-02T02:28:59;103442.22;;;16.56;100.00
56198;BME280;42700;42.524;12.052;2023-05-02T02:31:34;103176.03;;;16.48;100.00
56198;BME280;42700;42.524;12.052;2023-05-02T02:34:00;102688.56;;;16.32;100.00
56198;BME280;42700;42.524;12.052;2023-05-02T02:36:33;102544.06;;;16.26;100.00
56198;BME280;42700;42.524;12.052;2023-05-02T02:39:09;102677.06;;;16.30;100.00
56198;BME280;42700;42.524;12.052;2023-05-02T02:41:46;102664.59;;;16.29;100.00
56198;BME280;42700;42.524;12.052;2023-05-02T02:52:17;102329.22;;;16.16;100.00
56198;BME280;42700;42.524;12.052;2023-05-02T02:54:44;102282.03;;;16.14;100.00
56198;BME280;42700;42.524;12.052;2023-05-02T02:59:37;102150.28;;;16.05;100.00
56198;BME280;42700;42.524;12.052;2023-05-02T03:02:08;102024.69;;;15.99;100.00
56198;BME280;42700;42.524;12.052;2023-05-02T03:04:38;101940.94;;;15.96;100.00
56198;BME280;42700;42.524;12.052;2023-05-02T03:07:05;101928.59;;;15.93;100.00
56198;BME280;42700;42.524;12.052;2023-05-02T03:12:25;101879.81;;;15.88;100.00
56198;BME280;42700;42.524;12.052;2023-05-02T03:14:52;101767.56;;;15.83;100.00
56198;BME280;42700;42.524;12.052;2023-05-02T03:17:23;101712.38;;;15.81;100.00
56198;BME280;42700;42.524;12.052;2023-05-02T03:19:48;101431.78;;;15.70;100.00
56198;BME280;42700;42.524;12.052;2023-05-02T03:22:14;101523.75;;;15.71;100.00
56198;BME280;42700;42.524;12.052;2023-05-02T03:24:40;101354.72;;;15.62;100.00
56198;BME280;42700;42.524;12.052;2023-05-02T03:27:05;101421.53;;;15.64;100.00
56198;BME280;42700;42.524;12.052;2023-05-02T03:29:31;101347.63;;;15.61;100.00
56198;BME280;42700;42.524;12.052;2023-05-02T03:31:57;101334.34;;;15.60;100.00
56198;BME280;42700;42.524;12.052;2023-05-02T03:34:22;101153.81;;;15.51;100.00
56198;BME280;42700;42.524;12.052;2023-05-02T03:36:48;101136.03;;;15.50;100.00
56198;BME280;42700;42.524;12.052;2023-05-02T03:39:14;101091.75;;;15.46;100.00
56198;BME280;42700;42.524;12.052;2023-05-02T03:41:39;101062.53;;;15.43;100.00
56198;BME280;42700;42.524;12.052;2023-05-02T03:44:06;101139.31;;;15.42;100.00
56198;BME280;42700;42.524;12.052;2023-05-02T03:46:32;100873.44;;;15.30;100.00
56198;BME280;42700;42.524;12.052;2023-05-02T03:48:57;100623.44;;;15.22;100.00
56198;BME280;42700;42.524;12.052;2023-05-02T03:51:23;100471.53;;;15.14;100.00
56198;BME280;42700;42.524;12.052;2023-05-02T03:53:48;100564.25;;;15.15;100.00
56198;BME280;42700;42.524;12.052;2023-05-02T03:56:17;100520.03;;;15.11;100.00
56198;BME280;42700;42.524;12.052;2023-05-02T03:58:44;100791.50;;;15.18;100.00
56198;BME280;42700;42.524;12.052;2023-05-02T04:01:13;101002.47;;;15.24;100.00
56198;BME280;42700;42.524;12.052;2023-05-02T04:03:39;101063.16;;;15.24;100.00
56198;BME280;42700;42.524;12.052;2023-05-02T04:06:05;101033.13;;;15.20;100.00
56198;BME280;42700;42.524;12.052;2023-05-02T04:08:31;100863.31;;;15.13;100.00
56198;BME280;42700;42.524;12.052;2023-05-02T04:10:56;100900.78;;;15.13;100.00
56198;BME280;42700;42.524;12.052;2023-05-02T04:13:22;100836.78;;;15.10;100.00
56198;BME280;42700;42.524;12.052;2023-05-02T04:15:47;100962.34;;;15.13;100.00
56198;BME280;42700;42.524;12.052;2023-05-02T04:18:13;100756.06;;;15.05;100.00
56198;BME280;42700;42.524;12.052;2023-05-02T04:20:38;100866.50;;;15.07;100.00
56198;BME280;42700;42.524;12.052;2023-05-02T04:23:07;100880.84;;;15.06;100.00
56198;BME280;42700;42.524;12.052;2023-05-02T04:25:32;101073.03;;;15.12;100.00
56198;BME280;42700;42.524;12.052;2023-05-02T04:27:58;100952.13;;;15.07;100.00
56198;BME280;42700;42.524;12.052;2023-05-02T04:30:23;101160.41;;;15.13;100.00
56198;BME280;42700;42.524;12.052;2023-05-02T04:32:49;101269.06;;;15.16;100.00
56198;BME280;42700;42.524;12.052;2023-05-02T04:35:15;101432.97;;;15.19;100.00
56198;BME280;42700;42.524;12.052;2023-05-02T04:37:41;101702.00;;;15.26;100.00
56198;BME280;42700;42.524;12.052;2023-05-02T04:40:07;101691.28;;;15.26;100.00
56198;BME280;42700;42.524;12.052;2023-05-02T04:42:33;101896.28;;;15.30;100.00
56198;BME280;42700;42.524;12.052;2023-05-02T04:44:58;101905.28;;;15.29;100.00
56198;BME280;42700;42.524;12.052;2023-05-02T04:47:24;101956.94;;;15.31;100.00
56198;BME280;42700;42.524;12.052;2023-05-02T04:49:49;102135.00;;;15.39;100.00
56198;BME280;42700;42.524;12.052;2023-05-02T04:52:15;102220.50;;;15.42;100.00
56198;BME280;42700;42.524;12.052;2023-05-02T04:54:40;102471.78;;;15.51;100.00
56198;BME280;42700;42.524;12.052;2023-05-02T04:57:06;102628.72;;;15.55;100.00
56198;BME280;42700;42.524;12.052;2023-05-02T04:59:32;102710.66;;;15.59;100.00
56198;BME280;42700;42.524;12.052;2023-05-02T05:01:58;102796.25;;;15.62;100.00
56198;BME280;42700;42.524;12.052;2023-05-02T05:04:23;103120.81;;;15.74;100.00
56198;BME280;42700;42.524;12.052;2023-05-02T05:06:48;103318.00;;;15.81;100.00
56198;BME280;42700;42.524;12.052;2023-05-02T05:09:14;103629.44;;;15.92;100.00
56198;BME280;42700;42.524;12.052;2023-05-02T05:11:40;103693.63;;;15.95;100.00
56198;BME280;42700;42.524;12.052;2023-05-02T05:14:07;103796.31;;;15.99;100.00
56198;BME280;42700;42.524;12.052;2023-05-02T05:16:32;103948.88;;;16.07;100.00
56198;BME280;42700;42.524;12.052;2023-05-02T05:18:59;104267.72;;;16.19;100.00
56198;BME280;42700;42.524;12.052;2023-05-02T05:21:24;104368.63;;;16.23;100.00
56198;BME280;42700;42.524;12.052;2023-05-02T05:23:51;104514.22;;;16.30;100.00
56198;BME280;42700;42.524;12.052;2023-05-02T05:26:17;104753.72;;;16.39;100.00
56198;BME280;42700;42.524;12.052;2023-05-02T05:28:42;104872.59;;;16.45;100.00
56198;BME280;42700;42.524;12.052;2023-05-02T05:31:09;105126.53;;;16.55;100.00
56198;BME280;42700;42.524;12.052;2023-05-02T05:33:35;105103.22;;;16.57;100.00
56198;BME280;42700;42.524;12.052;2023-05-02T05:36:07;105546.06;;;16.74;100.00
56198;BME280;42700;42.524;12.052;2023-05-02T05:38:33;105775.19;;;16.84;100.00
56198;BME280;42700;42.524;12.052;2023-05-02T05:40:58;105893.38;;;16.90;100.00
56198;BME280;42700;42.524;12.052;2023-05-02T05:43:25;106228.31;;;17.03;100.00
56198;BME280;42700;42.524;12.052;2023-05-02T05:45:51;106415.53;;;17.13;100.00
56198;BME280;42700;42.524;12.052;2023-05-02T05:48:17;106501.56;;;17.20;100.00
56198;BME280;42700;42.524;12.052;2023-05-02T05:50:43;106295.41;;;17.15;100.00
56198;BME280;42700;42.524;12.052;2023-05-02T05:53:08;106708.56;;;17.33;100.00
56198;BME280;42700;42.524;12.052;2023-05-02T05:55:34;106706.78;;;17.37;100.00
56198;BME280;42700;42.524;12.052;2023-05-02T05:57:59;106712.16;;;17.42;100.00
56198;BME280;42700;42.524;12.052;2023-05-02T06:00:25;107028.72;;;17.53;100.00
56198;BME280;42700;42.524;12.052;2023-05-02T06:02:51;107210.84;;;17.64;100.00
56198;BME280;42700;42.524;12.052;2023-05-02T06:05:17;106801.81;;;17.55;100.00
56198;BME280;42700;42.524;12.052;2023-05-02T06:07:42;107114.88;;;17.69;100.00
56198;BME280;42700;42.524;12.052;2023-05-02T06:10:08;107632.91;;;17.94;100.00
56198;BME280;42700;42.524;12.052;2023-05-02T06:12:34;108009.28;;;18.12;100.00
56198;BME280;42700;42.524;12.052;2023-05-02T06:14:59;107888.09;;;18.14;100.00
56198;BME280;42700;42.524;12.052;2023-05-02T06:17:25;108305.19;;;18.35;100.00
56198;BME280;42700;42.524;12.052;2023-05-02T06:19:51;108523.81;;;18.50;100.00
56198;BME280;42700;42.524;12.052;2023-05-02T06:22:16;108295.66;;;18.52;100.00
56198;BME280;42700;42.524;12.052;2023-05-02T06:24:42;107855.22;;;18.41;100.00
56198;BME280;42700;42.524;12.052;2023-05-02T06:27:07;107812.13;;;18.44;100.00
56198;BME280;42700;42.524;12.052;2023-05-02T06:29:33;107689.06;;;18.46;100.00
56198;BME280;42700;42.524;12.052;2023-05-02T06:31:58;107844.56;;;18.53;100.00
56198;BME280;42700;42.524;12.052;2023-05-02T06:34:24;107501.31;;;18.48;100.00
56198;BME280;42700;42.524;12.052;2023-05-02T06:36:53;106910.31;;;18.28;100.00
56198;BME280;42700;42.524;12.052;2023-05-02T06:39:19;107494.16;;;18.50;100.00
56198;BME280;42700;42.524;12.052;2023-05-02T06:41:44;107379.16;;;18.49;100.00
56198;BME280;42700;42.524;12.052;2023-05-02T06:44:10;107610.09;;;18.58;100.00
56198;BME280;42700;42.524;12.052;2023-05-02T06:46:35;107697.28;;;18.61;100.00
56198;BME280;42700;42.524;12.052;2023-05-02T06:49:01;107869.03;;;18.69;100.00
56198;BME280;42700;42.524;12.052;2023-05-02T06:51:26;107546.31;;;18.58;100.00
56198;BME280;42700;42.524;12.052;2023-05-02T06:53:52;107339.63;;;18.51;100.00
56198;BME280;42700;42.524;12.052;2023-05-02T06:56:17;107790.81;;;18.66;100.00
56198;BME280;42700;42.524;12.052;2023-05-02T06:58:43;107494.19;;;18.56;100.00
56198;BME280;42700;42.524;12.052;2023-05-02T07:01:09;108673.31;;;19.01;100.00
56198;BME280;42700;42.524;12.052;2023-05-02T07:03:34;106610.34;;;18.38;100.00
56198;BME280;42700;42.524;12.052;2023-05-02T07:06:00;107704.59;;;18.75;100.00
56198;BME280;42700;42.524;12.052;2023-05-02T07:08:26;107737.00;;;18.79;100.00
56198;BME280;42700;42.524;12.052;2023-05-02T07:10:53;107889.94;;;18.91;100.00
56198;BME280;42700;42.524;12.052;2023-05-02T07:13:18;107253.44;;;18.76;100.00
56198;BME280;42700;42.524;12.052;2023-05-02T07:15:44;108260.66;;;19.09;100.00
56198;BME280;42700;42.524;12.052;2023-05-02T07:18:09;108030.38;;;19.05;100.00
56198;BME280;42700;42.524;12.052;2023-05-02T07:20:35;108298.53;;;19.15;100.00
56198;BME280;42700;42.524;12.052;2023-05-02T07:23:02;108003.50;;;19.14;100.00
56198;BME280;42700;42.524;12.052;2023-05-02T07:25:28;107834.41;;;19.12;100.00
56198;BME280;42700;42.524;12.052;2023-05-02T07:27:53;107623.94;;;19.06;100.00
56198;BME280;42700;42.524;12.052;2023-05-02T07:30:19;106435.88;;;18.61;100.00
56198;BME280;42700;42.524;12.052;2023-05-02T07:32:45;107866.75;;;19.09;100.00
56198;BME280;42700;42.524;12.052;2023-05-02T07:35:10;108397.69;;;19.28;100.00
56198;BME280;42700;42.524;12.052;2023-05-02T07:37:36;108098.94;;;19.24;100.00
56198;BME280;42700;42.524;12.052;2023-05-02T07:40:02;108498.63;;;19.36;100.00
56198;BME280;42700;42.524;12.052;2023-05-02T07:42:28;108598.56;;;19.41;100.00
56198;BME280;42700;42.524;12.052;2023-05-02T07:44:54;108412.19;;;19.33;100.00
56198;BME280;42700;42.524;12.052;2023-05-02T07:47:19;108684.97;;;19.43;100.00
56198;BME280;42700;42.524;12.052;2023-05-02T07:49:49;108842.66;;;19.51;100.00
56198;BME280;42700;42.524;12.052;2023-05-02T07:52:15;109435.53;;;19.68;100.00
56198;BME280;42700;42.524;12.052;2023-05-02T07:54:40;109314.84;;;19.67;100.00
56198;BME280;42700;42.524;12.052;2023-05-02T07:57:06;109423.16;;;19.75;100.00
56198;BME280;42700;42.524;12.052;2023-05-02T07:59:32;109544.13;;;19.84;100.00
56198;BME280;42700;42.524;12.052;2023-05-02T08:01:58;109394.53;;;19.82;100.00
56198;BME280;42700;42.524;12.052;2023-05-02T08:04:24;109084.28;;;19.65;100.00
56198;BME280;42700;42.524;12.052;2023-05-02T08:06:50;108791.41;;;19.52;100.00
56198;BME280;42700;42.524;12.052;2023-05-02T08:09:15;108405.13;;;19.42;100.00
56198;BME280;42700;42.524;12.052;2023-05-02T08:11:41;109432.28;;;19.79;100.00
56198;BME280;42700;42.524;12.052;2023-05-02T08:14:06;108561.84;;;19.51;100.00
56198;BME280;42700;42.524;12.052;2023-05-02T08:16:32;109755.22;;;19.93;100.00
56198;BME280;42700;42.524;12.052;2023-05-02T08:18:57;108299.94;;;19.51;100.00
56198;BME280;42700;42.524;12.052;2023-05-02T08:21:23;108865.44;;;19.62;100.00
56198;BME280;42700;42.524;12.052;2023-05-02T08:23:48;109034.88;;;19.69;100.00
56198;BME280;42700;42.524;12.052;2023-05-02T08:26:14;109770.03;;;20.04;100.00
56198;BME280;42700;42.524;12.052;2023-05-02T08:28:40;110385.75;;;20.31;100.00
56198;BME280;42700;42.524;12.052;2023-05-02T08:31:05;110560.28;;;20.42;100.00
56198;BME280;42700;42.524;12.052;2023-05-02T08:33:31;109941.28;;;20.31;100.00
56198;BME280;42700;42.524;12.052;2023-05-02T08:35:56;110647.41;;;20.55;100.00
56198;BME280;42700;42.524;12.052;2023-05-02T08:38:22;110290.75;;;20.44;100.00
56198;BME280;42700;42.524;12.052;2023-05-02T08:40:47;109964.09;;;20.37;100.00
56198;BME280;42700;42.524;12.052;2023-05-02T08:43:15;108972.53;;;19.98;100.00
56198;BME280;42700;42.524;12.052;2023-05-02T08:45:41;110115.44;;;20.34;100.00
56198;BME280;42700;42.524;12.052;2023-05-02T08:48:08;112730.75;;;21.27;100.00
56198;BME280;42700;42.524;12.052;2023-05-02T08:50:40;113514.31;;;21.71;100.00
56198;BME280;42700;42.524;12.052;2023-05-02T08:53:10;112131.38;;;21.47;100.00
56198;BME280;42700;42.524;12.052;2023-05-02T08:55:36;113344.38;;;21.93;100.00
56198;BME280;42700;42.524;12.052;2023-05-02T08:58:04;114876.31;;;22.48;100.00
56198;BME280;42700;42.524;12.052;2023-05-02T09:00:30;115167.91;;;22.82;100.00
56198;BME280;42700;42.524;12.052;2023-05-02T09:03:05;115118.84;;;22.98;100.00
56198;BME280;42700;42.524;12.052;2023-05-02T09:05:39;114534.13;;;22.77;100.00
56198;BME280;42700;42.524;12.052;2023-05-02T09:08:06;113252.88;;;22.48;100.00
56198;BME280;42700;42.524;12.052;2023-05-02T09:10:33;113119.00;;;22.50;100.00
56198;BME280;42700;42.524;12.052;2023-05-02T09:13:26;115028.50;;;23.09;100.00
56198;BME280;42700;42.524;12.052;2023-05-02T09:15:47;115207.38;;;23.29;100.00
56198;BME280;42700;42.524;12.052;2023-05-02T09:18:21;116889.19;;;23.72;100.00
56198;BME280;42700;42.524;12.052;2023-05-02T09:20:47;114137.50;;;22.89;100.00
56198;BME280;42700;42.524;12.052;2023-05-02T09:23:13;115114.59;;;23.17;100.00
56198;BME280;42700;42.524;12.052;2023-05-02T09:25:38;115285.50;;;23.30;100.00
56198;BME280;42700;42.524;12.052;2023-05-02T09:28:04;116697.75;;;23.81;100.00
56198;BME280;42700;42.524;12.052;2023-05-02T09:30:30;118362.38;;;24.42;100.00
56198;BME280;42700;42.524;12.052;2023-05-02T09:32:55;117487.06;;;24.29;100.00
56198;BME280;42700;42.524;12.052;2023-05-02T09:35:21;116520.22;;;24.13;100.00
56198;BME280;42700;42.524;12.052;2023-05-02T09:37:50;112732.75;;;22.94;100.00
56198;BME280;42700;42.524;12.052;2023-05-02T09:40:16;115494.06;;;23.81;100.00
56198;BME280;42700;42.524;12.052;2023-05-02T09:42:42;114020.88;;;23.23;100.00
56198;BME280;42700;42.524;12.052;2023-05-02T09:45:07;111036.03;;;22.19;100.00
56198;BME280;42700;42.524;12.052;2023-05-02T09:47:33;106589.56;;;20.65;100.00
56198;BME280;42700;42.524;12.052;2023-05-02T09:50:00;106513.97;;;20.59;100.00
56198;BME280;42700;42.524;12.052;2023-05-02T09:52:28;105749.88;;;20.30;100.00
56198;BME280;42700;42.524;12.052;2023-05-02T09:54:53;107434.00;;;20.81;100.00
56198;BME280;42700;42.524;12.052;2023-05-02T09:57:21;107390.75;;;20.75;100.00
56198;BME280;42700;42.524;12.052;2023-05-02T10:00:03;105931.78;;;20.28;100.00
56198;BME280;42700;42.524;12.052;2023-05-02T10:02:29;105988.41;;;20.33;100.00
56198;BME280;42700;42.524;12.052;2023-05-02T10:04:56;105815.88;;;20.21;100.00
56198;BME280;42700;42.524;12.052;2023-05-02T10:07:23;107023.09;;;20.59;100.00
56198;BME280;42700;42.524;12.052;2023-05-02T10:09:49;108088.66;;;20.90;100.00
56198;BME280;42700;42.524;12.052;2023-05-02T10:12:17;107909.19;;;20.83;100.00
56198;BME280;42700;42.524;12.052;2023-05-02T10:14:47;108636.34;;;21.05;100.00
56198;BME280;42700;42.524;12.052;2023-05-02T10:17:17;109619.72;;;21.32;100.00
56198;BME280;42700;42.524;12.052;2023-05-02T10:20:02;108095.88;;;20.82;100.00
56198;BME280;42700;42.524;12.052;2023-05-02T10:22:29;110178.97;;;21.42;100.00
56198;BME280;42700;42.524;12.052;2023-05-02T10:24:55;113007.22;;;22.32;100.00
56198;BME280;42700;42.524;12.052;2023-05-02T10:27:22;113820.09;;;22.64;100.00
56198;BME280;42700;42.524;12.052;2023-05-02T10:29:47;114075.50;;;22.75;100.00
56198;BME280;42700;42.524;12.052;2023-05-02T10:32:13;114837.31;;;23.10;100.00
56198;BME280;42700;42.524;12.052;2023-05-02T10:34:39;113061.31;;;22.65;100.00
56198;BME280;42700;42.524;12.052;2023-05-02T10:37:05;114893.34;;;23.08;100.00
56198;BME280;42700;42.524;12.052;2023-05-02T10:39:31;114587.19;;;23.01;100.00
56198;BME280;42700;42.524;12.052;2023-05-02T10:41:57;116325.13;;;23.62;100.00
56198;BME280;42700;42.524;12.052;2023-05-02T10:44:36;115636.69;;;23.40;100.00
56198;BME280;42700;42.524;12.052;2023-05-02T10:47:18;117500.41;;;24.00;100.00
56198;BME280;42700;42.524;12.052;2023-05-02T10:52:37;118602.81;;;24.56;100.00
56198;BME280;42700;42.524;12.052;2023-05-02T10:55:18;117932.56;;;24.37;100.00
56198;BME280;42700;42.524;12.052;2023-05-02T11:00:31;116763.94;;;23.87;100.00
56198;BME280;42700;42.524;12.052;2023-05-02T11:02:58;117394.34;;;24.02;100.00
56198;BME280;42700;42.524;12.052;2023-05-02T11:05:24;116442.16;;;23.69;100.00
56198;BME280;42700;42.524;12.052;2023-05-02T11:08:29;117878.91;;;24.17;100.00
56198;BME280;42700;42.524;12.052;2023-05-02T11:10:35;116421.00;;;23.67;100.00
56198;BME280;42700;42.524;12.052;2023-05-02T11:13:01;114990.41;;;23.18;100.00
56198;BME280;42700;42.524;12.052;2023-05-02T11:18:01;114321.16;;;22.77;100.00
56198;BME280;42700;42.524;12.052;2023-05-02T11:20:27;118238.06;;;23.94;100.00
56198;BME280;42700;42.524;12.052;2023-05-02T11:22:54;120085.81;;;24.64;100.00
56198;BME280;42700;42.524;12.052;2023-05-02T11:25:30;118371.00;;;24.02;100.00
56198;BME280;42700;42.524;12.052;2023-05-02T11:27:56;117635.91;;;23.75;100.00
56198;BME280;42700;42.524;12.052;2023-05-02T11:30:38;120098.53;;;24.54;100.00
56198;BME280;42700;42.524;12.052;2023-05-02T11:35:29;119115.19;;;24.36;100.00
56198;BME280;42700;42.524;12.052;2023-05-02T11:38:02;120052.13;;;24.69;100.00
56198;BME280;42700;42.524;12.052;2023-05-02T11:40:28;120427.78;;;24.94;100.00
56198;BME280;42700;42.524;12.052;2023-05-02T11:42:55;118237.53;;;24.34;100.00
56198;BME280;42700;42.524;12.052;2023-05-02T11:45:20;118866.22;;;24.48;100.00
56198;BME280;42700;42.524;12.052;2023-05-02T11:47:47;120523.94;;;25.12;100.00
56198;BME280;42700;42.524;12.052;2023-05-02T11:50:13;118542.25;;;24.59;100.00
56198;BME280;42700;42.524;12.052;2023-05-02T11:52:39;120105.22;;;25.08;100.00
56198;BME280;42700;42.524;12.052;2023-05-02T11:55:06;119795.28;;;24.94;100.00
56198;BME280;42700;42.524;12.052;2023-05-02T11:57:33;120250.44;;;25.05;100.00
56198;BME280;42700;42.524;12.052;2023-05-02T11:59:58;118347.72;;;24.65;100.00
56198;BME280;42700;42.524;12.052;2023-05-02T12:02:40;117174.72;;;24.31;100.00
56198;BME280;42700;42.524;12.052;2023-05-02T12:05:06;118275.34;;;24.62;100.00
56198;BME280;42700;42.524;12.052;2023-05-02T12:07:39;119154.88;;;24.96;100.00
56198;BME280;42700;42.524;12.052;2023-05-02T12:10:05;122761.72;;;26.06;100.00
56198;BME280;42700;42.524;12.052;2023-05-02T12:12:31;125402.94;;;26.93;100.00
56198;BME280;42700;42.524;12.052;2023-05-02T12:14:57;128625.56;;;28.04;100.00
56198;BME280;42700;42.524;12.052;2023-05-02T12:17:23;127264.19;;;27.65;100.00
56198;BME280;42700;42.524;12.052;2023-05-02T12:19:49;123301.56;;;26.33;100.00
56198;BME280;42700;42.524;12.052;2023-05-02T12:22:15;118846.09;;;24.59;100.00
56198;BME280;42700;42.524;12.052;2023-05-02T12:24:40;118542.44;;;24.36;100.00
56198;BME280;42700;42.524;12.052;2023-05-02T12:27:08;113782.56;;;22.81;100.00
56198;BME280;42700;42.524;12.052;2023-05-02T12:29:37;113120.41;;;22.56;100.00
56198;BME280;42700;42.524;12.052;2023-05-02T12:32:03;114568.16;;;23.01;100.00
56198;BME280;42700;42.524;12.052;2023-05-02T12:34:32;119966.38;;;24.78;100.00
56198;BME280;42700;42.524;12.052;2023-05-02T12:36:58;119229.81;;;24.53;100.00
56198;BME280;42700;42.524;12.052;2023-05-02T12:39:33;124165.66;;;26.23;100.00
56198;BME280;42700;42.524;12.052;2023-05-02T12:41:59;129152.13;;;28.08;100.00
56198;BME280;42700;42.524;12.052;2023-05-02T12:44:37;129091.00;;;28.37;100.00
56198;BME280;42700;42.524;12.052;2023-05-02T12:47:03;132245.94;;;29.71;100.00
56198;BME280;42700;42.524;12.052;2023-05-02T12:49:28;133049.56;;;30.30;100.00
56198;BME280;42700;42.524;12.052;2023-05-02T12:51:54;134426.16;;;31.10;100.00
56198;BME280;42700;42.524;12.052;2023-05-02T12:54:20;135645.97;;;31.89;100.00
56198;BME280;42700;42.524;12.052;2023-05-02T12:56:46;136545.34;;;32.89;100.00
56198;BME280;42700;42.524;12.052;2023-05-02T12:59:27;136875.50;;;33.72;100.00
56198;BME280;42700;42.524;12.052;2023-05-02T13:01:54;131688.84;;;32.60;100.00